sensor_id;sensor_type;location;lat;lon;timestamp;pressure;altitude;pressure_sealevel;temperature;humidity
10202;BME280;5143;42.584;23.164;2023-03-05T00:00:45;92077.44;;;5.54;100.00
10202;BME280;5143;42.584;23.164;2023-03-05T00:03:12;92074.00;;;5.53;100.00
10202;BME280;5143;42.584;23.164;2023-03-05T00:05:39;92061.28;;;5.45;100.00
10202;BME280;5143;42.584;23.164;2023-03-05T00:08:05;92073.13;;;5.47;100.00
10202;BME280;5143;42.584;23.164;2023-03-05T00:10:32;92069.66;;;5.47;100.00
10202;BME280;5143;42.584;23.164;2023-03-05T00:13:00;92059.44;;;5.51;100.00
10202;BME280;5143;42.584;23.164;2023-03-05T00:15:27;92070.16;;;5.45;100.00
10202;BME280;5143;42.584;23.164;2023-03-05T00:17:54;92057.25;;;5.40;100.00
10202;BME280;5143;42.584;23.164;2023-03-05T00:20:20;92048.00;;;5.47;100.00
10202;BME280;5143;42.584;23.164;2023-03-05T00:22:47;92054.28;;;5.53;100.00
10202;BME280;5143;42.584;23.164;2023-03-05T00:25:14;92059.53;;;5.56;100.00
10202;BME280;5143;42.584;23.164;2023-03-05T00:27:41;92053.38;;;5.56;100.00
10202;BME280;5143;42.584;23.164;2023-03-05T00:30:10;92051.66;;;5.44;100.00
10202;BME280;5143;42.584;23.164;2023-03-05T00:32:37;92051.03;;;5.49;100.00
10202;BME280;5143;42.584;23.164;2023-03-05T00:35:05;92057.59;;;5.57;100.00
10202;BME280;5143;42.584;23.164;2023-03-05T00:37:32;92048.06;;;5.61;100.00
10202;BME280;5143;42.584;23.164;2023-03-05T00:39:58;92055.44;;;5.61;100.00
10202;BME280;5143;42.584;23.164;2023-03-05T00:42:25;92048.53;;;5.60;100.00
10202;BME280;5143;42.584;23.164;2023-03-05T00:44:52;92043.59;;;5.34;100.00
10202;BME280;5143;42.584;23.164;2023-03-05T00:47:20;92041.75;;;5.41;100.00
10202;BME280;5143;42.584;23.164;2023-03-05T00:49:47;92029.44;;;5.40;100.00
10202;BME280;5143;42.584;23.164;2023-03-05T00:52:13;92036.00;;;5.48;100.00
10202;BME280;5143;42.584;23.164;2023-03-05T00:54:40;92032.38;;;5.51;100.00
10202;BME280;5143;42.584;23.164;2023-03-05T00:57:07;92035.06;;;5.51;100.00
10202;BME280;5143;42.584;23.164;2023-03-05T00:59:33;92017.53;;;5.46;100.00
10202;BME280;5143;42.584;23.164;2023-03-05T01:02:01;92021.38;;;5.54;100.00
10202;BME280;5143;42.584;23.164;2023-03-05T01:04:29;92017.25;;;5.59;100.00
10202;BME280;5143;42.584;23.164;2023-03-05T01:06:56;92028.44;;;5.52;100.00
10202;BME280;5143;42.584;23.164;2023-03-05T01:09:22;92018.34;;;5.52;100.00
10202;BME280;5143;42.584;23.164;2023-03-05T01:11:50;92017.63;;;5.52;100.00
10202;BME280;5143;42.584;23.164;2023-03-05T01:14:17;92006.50;;;5.50;100.00
10202;BME280;5143;42.584;23.164;2023-03-05T01:16:44;92013.03;;;5.58;100.00
10202;BME280;5143;42.584;23.164;2023-03-05T01:19:11;92013.78;;;5.58;100.00
10202;BME280;5143;42.584;23.164;2023-03-05T01:21:39;92020.88;;;5.56;100.00
10202;BME280;5143;42.584;23.164;2023-03-05T01:24:07;92017.25;;;5.59;100.00
10202;BME280;5143;42.584;23.164;2023-03-05T01:26:34;92013.34;;;5.60;100.00
10202;BME280;5143;42.584;23.164;2023-03-05T01:29:01;92021.47;;;5.60;100.00
10202;BME280;5143;42.584;23.164;2023-03-05T01:31:28;92013.25;;;5.54;100.00
10202;BME280;5143;42.584;23.164;2023-03-05T01:33:55;92010.97;;;5.53;100.00
10202;BME280;5143;42.584;23.164;2023-03-05T01:36:22;92003.16;;;5.55;100.00
10202;BME280;5143;42.584;23.164;2023-03-05T01:38:51;92000.81;;;5.48;100.00
10202;BME280;5143;42.584;23.164;2023-03-05T01:41:18;91995.97;;;5.52;100.00
10202;BME280;5143;42.584;23.164;2023-03-05T01:43:46;92002.09;;;5.52;100.00
10202;BME280;5143;42.584;23.164;2023-03-05T01:46:25;92002.00;;;5.47;100.00
10202;BME280;5143;42.584;23.164;2023-03-05T01:48:55;91998.75;;;5.43;100.00
10202;BME280;5143;42.584;23.164;2023-03-05T01:51:26;91990.91;;;5.45;100.00
10202;BME280;5143;42.584;23.164;2023-03-05T01:53:56;91996.78;;;5.43;100.00
10202;BME280;5143;42.584;23.164;2023-03-05T01:56:26;91995.75;;;5.41;100.00
10202;BME280;5143;42.584;23.164;2023-03-05T01:58:53;91994.72;;;5.38;100.00
10202;BME280;5143;42.584;23.164;2023-03-05T02:01:29;91995.66;;;5.35;100.00
10202;BME280;5143;42.584;23.164;2023-03-05T02:03:55;91993.41;;;5.33;100.00
10202;BME280;5143;42.584;23.164;2023-03-05T02:06:23;91991.69;;;5.21;100.00
10202;BME280;5143;42.584;23.164;2023-03-05T02:08:49;91987.22;;;5.18;100.00
10202;BME280;5143;42.584;23.164;2023-03-05T02:11:18;91993.66;;;5.21;100.00
10202;BME280;5143;42.584;23.164;2023-03-05T02:13:45;91985.53;;;5.21;100.00
10202;BME280;5143;42.584;23.164;2023-03-05T02:16:12;91990.84;;;5.15;100.00
10202;BME280;5143;42.584;23.164;2023-03-05T02:18:39;91994.28;;;5.16;100.00
10202;BME280;5143;42.584;23.164;2023-03-05T02:21:07;92001.28;;;5.22;100.00
10202;BME280;5143;42.584;23.164;2023-03-05T02:23:36;91995.81;;;5.31;100.00
10202;BME280;5143;42.584;23.164;2023-03-05T02:26:04;91988.34;;;5.26;100.00
10202;BME280;5143;42.584;23.164;2023-03-05T02:28:34;91998.16;;;5.38;100.00
10202;BME280;5143;42.584;23.164;2023-03-05T02:31:07;92000.03;;;5.32;100.00
10202;BME280;5143;42.584;23.164;2023-03-05T02:33:34;91993.41;;;5.33;100.00
10202;BME280;5143;42.584;23.164;2023-03-05T02:36:01;92001.50;;;5.33;100.00
10202;BME280;5143;42.584;23.164;2023-03-05T02:38:29;91987.44;;;5.29;100.00
10202;BME280;5143;42.584;23.164;2023-03-05T02:40:56;91991.06;;;5.26;100.00
10202;BME280;5143;42.584;23.164;2023-03-05T02:43:23;91987.75;;;5.22;100.00
10202;BME280;5143;42.584;23.164;2023-03-05T02:45:49;91992.41;;;5.22;100.00
10202;BME280;5143;42.584;23.164;2023-03-05T02:48:16;92003.84;;;5.26;100.00
10202;BME280;5143;42.584;23.164;2023-03-05T02:50:44;91998.81;;;5.33;100.00
10202;BME280;5143;42.584;23.164;2023-03-05T02:53:11;92002.16;;;5.28;100.00
10202;BME280;5143;42.584;23.164;2023-03-05T02:55:40;92000.53;;;5.22;100.00
10202;BME280;5143;42.584;23.164;2023-03-05T02:58:07;92000.25;;;5.20;100.00
10202;BME280;5143;42.584;23.164;2023-03-05T03:00:33;91992.97;;;5.11;100.00
10202;BME280;5143;42.584;23.164;2023-03-05T03:03:00;91994.41;;;5.21;100.00
10202;BME280;5143;42.584;23.164;2023-03-05T03:05:27;91995.44;;;5.24;100.00
10202;BME280;5143;42.584;23.164;2023-03-05T03:07:53;91988.88;;;5.16;100.00
10202;BME280;5143;42.584;23.164;2023-03-05T03:10:20;91996.13;;;5.10;100.00
10202;BME280;5143;42.584;23.164;2023-03-05T03:12:48;91992.13;;;5.05;100.00
10202;BME280;5143;42.584;23.164;2023-03-05T03:15:16;91981.91;;;5.00;100.00
10202;BME280;5143;42.584;23.164;2023-03-05T03:17:43;91989.84;;;5.04;100.00
10202;BME280;5143;42.584;23.164;2023-03-05T03:20:13;91995.66;;;5.11;100.00
10202;BME280;5143;42.584;23.164;2023-03-05T03:22:42;91996.03;;;5.04;100.00
10202;BME280;5143;42.584;23.164;2023-03-05T03:25:11;91987.78;;;4.99;100.00
10202;BME280;5143;42.584;23.164;2023-03-05T03:27:39;91996.72;;;4.90;100.00
10202;BME280;5143;42.584;23.164;2023-03-05T03:30:08;91985.78;;;4.85;100.00
10202;BME280;5143;42.584;23.164;2023-03-05T03:32:35;92004.97;;;4.87;100.00
10202;BME280;5143;42.584;23.164;2023-03-05T03:35:03;92009.06;;;4.82;100.00
10202;BME280;5143;42.584;23.164;2023-03-05T03:37:30;92005.06;;;4.78;100.00
10202;BME280;5143;42.584;23.164;2023-03-05T03:39:56;92005.13;;;4.59;100.00
10202;BME280;5143;42.584;23.164;2023-03-05T03:42:24;92010.75;;;4.47;100.00
10202;BME280;5143;42.584;23.164;2023-03-05T03:44:50;91998.19;;;4.35;100.00
10202;BME280;5143;42.584;23.164;2023-03-05T03:47:18;92001.78;;;4.41;100.00
10202;BME280;5143;42.584;23.164;2023-03-05T03:49:45;92008.56;;;4.36;100.00
10202;BME280;5143;42.584;23.164;2023-03-05T03:52:12;92007.22;;;4.32;100.00
10202;BME280;5143;42.584;23.164;2023-03-05T03:54:38;92004.06;;;4.33;100.00
10202;BME280;5143;42.584;23.164;2023-03-05T03:57:05;91998.06;;;4.29;100.00
10202;BME280;5143;42.584;23.164;2023-03-05T03:59:32;92002.72;;;4.29;100.00
10202;BME280;5143;42.584;23.164;2023-03-05T04:01:59;91992.84;;;4.26;100.00
10202;BME280;5143;42.584;23.164;2023-03-05T04:04:27;92006.28;;;4.35;100.00
10202;BME280;5143;42.584;23.164;2023-03-05T04:06:54;92004.81;;;4.34;100.00
10202;BME280;5143;42.584;23.164;2023-03-05T04:09:21;91996.72;;;4.34;100.00
10202;BME280;5143;42.584;23.164;2023-03-05T04:11:48;91999.84;;;4.32;100.00
10202;BME280;5143;42.584;23.164;2023-03-05T04:14:14;91995.53;;;4.26;100.00
10202;BME280;5143;42.584;23.164;2023-03-05T04:16:41;91995.06;;;4.27;100.00
10202;BME280;5143;42.584;23.164;2023-03-05T04:19:08;92004.69;;;4.28;100.00
10202;BME280;5143;42.584;23.164;2023-03-05T04:21:36;91998.81;;;4.30;100.00
10202;BME280;5143;42.584;23.164;2023-03-05T04:24:05;92003.59;;;4.35;100.00
10202;BME280;5143;42.584;23.164;2023-03-05T04:26:32;92009.34;;;4.28;100.00
10202;BME280;5143;42.584;23.164;2023-03-05T04:28:59;92004.84;;;4.25;100.00
10202;BME280;5143;42.584;23.164;2023-03-05T04:31:26;91999.03;;;4.17;100.00
10202;BME280;5143;42.584;23.164;2023-03-05T04:33:52;92002.59;;;4.23;100.00
10202;BME280;5143;42.584;23.164;2023-03-05T04:36:19;92007.56;;;4.15;100.00
10202;BME280;5143;42.584;23.164;2023-03-05T04:38:47;91979.09;;;4.05;100.00
10202;BME280;5143;42.584;23.164;2023-03-05T04:41:14;91996.34;;;4.08;100.00
10202;BME280;5143;42.584;23.164;2023-03-05T04:43:40;92011.16;;;4.22;100.00
10202;BME280;5143;42.584;23.164;2023-03-05T04:46:07;92008.16;;;4.20;100.00
10202;BME280;5143;42.584;23.164;2023-03-05T04:48:34;92007.25;;;4.23;100.00
10202;BME280;5143;42.584;23.164;2023-03-05T04:51:00;92009.06;;;4.26;100.00
10202;BME280;5143;42.584;23.164;2023-03-05T04:53:27;92005.28;;;4.23;100.00
10202;BME280;5143;42.584;23.164;2023-03-05T04:55:55;92006.09;;;4.14;100.00
10202;BME280;5143;42.584;23.164;2023-03-05T04:58:26;92007.81;;;4.27;100.00
10202;BME280;5143;42.584;23.164;2023-03-05T05:00:52;92014.47;;;4.26;100.00
10202;BME280;5143;42.584;23.164;2023-03-05T05:03:19;92011.91;;;4.22;100.00
10202;BME280;5143;42.584;23.164;2023-03-05T05:05:53;92019.22;;;4.31;100.00
10202;BME280;5143;42.584;23.164;2023-03-05T05:08:20;92027.03;;;4.29;100.00
10202;BME280;5143;42.584;23.164;2023-03-05T05:10:56;92020.78;;;4.13;100.00
10202;BME280;5143;42.584;23.164;2023-03-05T05:13:23;92020.16;;;4.18;100.00
10202;BME280;5143;42.584;23.164;2023-03-05T05:15:49;92023.63;;;4.10;100.00
10202;BME280;5143;42.584;23.164;2023-03-05T05:18:16;92033.81;;;4.15;100.00
10202;BME280;5143;42.584;23.164;2023-03-05T05:20:43;92026.66;;;4.03;100.00
10202;BME280;5143;42.584;23.164;2023-03-05T05:23:10;92031.59;;;4.04;100.00
10202;BME280;5143;42.584;23.164;2023-03-05T05:25:37;92035.34;;;4.07;100.00
10202;BME280;5143;42.584;23.164;2023-03-05T05:28:05;92030.41;;;4.05;100.00
10202;BME280;5143;42.584;23.164;2023-03-05T05:30:32;92037.59;;;4.08;100.00
10202;BME280;5143;42.584;23.164;2023-03-05T05:32:58;92035.47;;;4.12;100.00
10202;BME280;5143;42.584;23.164;2023-03-05T05:35:25;92041.78;;;4.09;100.00
10202;BME280;5143;42.584;23.164;2023-03-05T05:37:52;92035.66;;;4.09;100.00
10202;BME280;5143;42.584;23.164;2023-03-05T05:40:19;92040.03;;;4.06;100.00
10202;BME280;5143;42.584;23.164;2023-03-05T05:42:46;92043.91;;;4.14;100.00
10202;BME280;5143;42.584;23.164;2023-03-05T05:45:14;92042.97;;;4.17;100.00
10202;BME280;5143;42.584;23.164;2023-03-05T05:47:41;92049.84;;;4.28;100.00
10202;BME280;5143;42.584;23.164;2023-03-05T05:50:09;92054.03;;;4.29;100.00
10202;BME280;5143;42.584;23.164;2023-03-05T05:52:36;92054.34;;;4.31;100.00
10202;BME280;5143;42.584;23.164;2023-03-05T05:55:03;92053.25;;;4.37;100.00
10202;BME280;5143;42.584;23.164;2023-03-05T05:57:30;92056.56;;;4.41;100.00
10202;BME280;5143;42.584;23.164;2023-03-05T05:59:57;92061.63;;;4.48;100.00
10202;BME280;5143;42.584;23.164;2023-03-05T06:02:25;92056.09;;;4.43;100.00
10202;BME280;5143;42.584;23.164;2023-03-05T06:04:52;92062.38;;;4.49;100.00
10202;BME280;5143;42.584;23.164;2023-03-05T06:07:19;92064.66;;;4.41;100.00
10202;BME280;5143;42.584;23.164;2023-03-05T06:09:45;92068.41;;;4.53;100.00
10202;BME280;5143;42.584;23.164;2023-03-05T06:12:12;92071.38;;;4.55;100.00
10202;BME280;5143;42.584;23.164;2023-03-05T06:14:39;92075.72;;;4.61;100.00
10202;BME280;5143;42.584;23.164;2023-03-05T06:17:06;92077.94;;;4.72;100.00
10202;BME280;5143;42.584;23.164;2023-03-05T06:19:34;92083.00;;;4.79;100.00
10202;BME280;5143;42.584;23.164;2023-03-05T06:22:01;92070.91;;;4.89;100.00
10202;BME280;5143;42.584;23.164;2023-03-05T06:24:28;92082.72;;;4.77;100.00
10202;BME280;5143;42.584;23.164;2023-03-05T06:26:54;92077.72;;;4.85;100.00
10202;BME280;5143;42.584;23.164;2023-03-05T06:29:21;92087.97;;;4.81;100.00
10202;BME280;5143;42.584;23.164;2023-03-05T06:31:48;92098.44;;;4.88;100.00
10202;BME280;5143;42.584;23.164;2023-03-05T06:34:14;92088.44;;;5.03;100.00
10202;BME280;5143;42.584;23.164;2023-03-05T06:36:43;92097.94;;;5.22;100.00
10202;BME280;5143;42.584;23.164;2023-03-05T06:39:09;92090.00;;;5.18;100.00
10202;BME280;5143;42.584;23.164;2023-03-05T06:41:36;92095.16;;;5.16;100.00
10202;BME280;5143;42.584;23.164;2023-03-05T06:44:03;92093.63;;;5.15;100.00
10202;BME280;5143;42.584;23.164;2023-03-05T06:46:31;92089.56;;;5.44;100.00
10202;BME280;5143;42.584;23.164;2023-03-05T06:48:59;92103.38;;;5.46;100.00
10202;BME280;5143;42.584;23.164;2023-03-05T06:51:28;92109.44;;;5.41;100.00
10202;BME280;5143;42.584;23.164;2023-03-05T06:53:59;92103.25;;;5.64;100.00
10202;BME280;5143;42.584;23.164;2023-03-05T06:56:26;92105.75;;;5.91;100.00
10202;BME280;5143;42.584;23.164;2023-03-05T06:58:53;92103.03;;;6.29;100.00
10202;BME280;5143;42.584;23.164;2023-03-05T07:01:20;92101.44;;;6.67;100.00
10202;BME280;5143;42.584;23.164;2023-03-05T07:03:48;92114.69;;;7.43;100.00
10202;BME280;5143;42.584;23.164;2023-03-05T07:06:15;92119.16;;;7.46;95.33
10202;BME280;5143;42.584;23.164;2023-03-05T07:08:42;92112.91;;;7.40;87.12
10202;BME280;5143;42.584;23.164;2023-03-05T07:11:12;92120.94;;;7.69;85.33
10202;BME280;5143;42.584;23.164;2023-03-05T07:13:40;92121.41;;;7.68;88.78
10202;BME280;5143;42.584;23.164;2023-03-05T07:16:09;92124.13;;;7.68;78.40
10202;BME280;5143;42.584;23.164;2023-03-05T07:18:37;92121.44;;;7.88;88.96
10202;BME280;5143;42.584;23.164;2023-03-05T07:21:05;92122.84;;;7.63;79.09
10202;BME280;5143;42.584;23.164;2023-03-05T07:23:32;92124.97;;;7.39;86.32
10202;BME280;5143;42.584;23.164;2023-03-05T07:26:00;92118.44;;;7.31;95.53
10202;BME280;5143;42.584;23.164;2023-03-05T07:28:29;92123.81;;;7.60;87.61
10202;BME280;5143;42.584;23.164;2023-03-05T07:30:56;92133.28;;;7.16;80.41
10202;BME280;5143;42.584;23.164;2023-03-05T07:33:24;92129.81;;;7.15;81.70
10202;BME280;5143;42.584;23.164;2023-03-05T07:35:50;92121.50;;;7.04;89.48
10202;BME280;5143;42.584;23.164;2023-03-05T07:38:17;92125.53;;;7.08;94.73
10202;BME280;5143;42.584;23.164;2023-03-05T07:40:44;92128.16;;;7.03;87.55
10202;BME280;5143;42.584;23.164;2023-03-05T07:43:11;92123.94;;;7.02;92.92
10202;BME280;5143;42.584;23.164;2023-03-05T07:45:40;92121.16;;;7.31;88.43
10202;BME280;5143;42.584;23.164;2023-03-05T07:48:08;92121.72;;;7.55;87.50
10202;BME280;5143;42.584;23.164;2023-03-05T07:50:37;92126.81;;;7.48;79.24
10202;BME280;5143;42.584;23.164;2023-03-05T07:53:04;92119.47;;;7.68;82.78
10202;BME280;5143;42.584;23.164;2023-03-05T07:55:31;92126.13;;;7.88;79.17
10202;BME280;5143;42.584;23.164;2023-03-05T07:57:57;92124.03;;;7.42;77.53
10202;BME280;5143;42.584;23.164;2023-03-05T08:00:24;92121.22;;;7.71;83.09
10202;BME280;5143;42.584;23.164;2023-03-05T08:02:52;92123.66;;;7.49;83.81
10202;BME280;5143;42.584;23.164;2023-03-05T08:05:19;92120.25;;;7.54;84.93
10202;BME280;5143;42.584;23.164;2023-03-05T08:07:46;92121.50;;;7.94;76.83
10202;BME280;5143;42.584;23.164;2023-03-05T08:10:12;92124.38;;;8.10;77.30
10202;BME280;5143;42.584;23.164;2023-03-05T08:12:39;92127.66;;;8.14;70.52
10202;BME280;5143;42.584;23.164;2023-03-05T08:15:07;92127.59;;;7.89;71.69
10202;BME280;5143;42.584;23.164;2023-03-05T08:17:33;92122.84;;;7.63;74.55
10202;BME280;5143;42.584;23.164;2023-03-05T08:20:02;92112.78;;;7.90;79.38
10202;BME280;5143;42.584;23.164;2023-03-05T08:22:31;92112.50;;;8.08;76.42
10202;BME280;5143;42.584;23.164;2023-03-05T08:24:58;92113.88;;;7.98;77.24
10202;BME280;5143;42.584;23.164;2023-03-05T08:27:24;92109.13;;;7.93;85.38
10202;BME280;5143;42.584;23.164;2023-03-05T08:29:51;92115.03;;;7.91;89.79
10202;BME280;5143;42.584;23.164;2023-03-05T08:32:18;92103.84;;;7.63;82.98
10202;BME280;5143;42.584;23.164;2023-03-05T08:34:45;92121.28;;;7.57;72.98
10202;BME280;5143;42.584;23.164;2023-03-05T08:37:13;92109.94;;;7.58;82.49
10202;BME280;5143;42.584;23.164;2023-03-05T08:39:40;92109.47;;;7.60;80.26
10202;BME280;5143;42.584;23.164;2023-03-05T08:42:07;92106.94;;;7.56;81.62
10202;BME280;5143;42.584;23.164;2023-03-05T08:44:33;92106.75;;;7.25;76.63
10202;BME280;5143;42.584;23.164;2023-03-05T08:47:00;92100.97;;;7.52;76.35
10202;BME280;5143;42.584;23.164;2023-03-05T08:49:27;92090.34;;;7.34;71.19
10202;BME280;5143;42.584;23.164;2023-03-05T08:51:53;92105.03;;;7.42;80.29
10202;BME280;5143;42.584;23.164;2023-03-05T08:54:22;92101.63;;;7.47;76.89
10202;BME280;5143;42.584;23.164;2023-03-05T08:56:48;92104.25;;;7.22;79.10
10202;BME280;5143;42.584;23.164;2023-03-05T08:59:15;92093.34;;;7.36;74.98
10202;BME280;5143;42.584;23.164;2023-03-05T09:01:42;92089.72;;;7.80;78.31
10202;BME280;5143;42.584;23.164;2023-03-05T09:04:09;92091.06;;;7.90;70.47
10202;BME280;5143;42.584;23.164;2023-03-05T09:06:35;92091.31;;;7.92;70.54
10202;BME280;5143;42.584;23.164;2023-03-05T09:09:04;92082.47;;;8.17;67.61
10202;BME280;5143;42.584;23.164;2023-03-05T09:11:33;92092.31;;;8.35;70.02
10202;BME280;5143;42.584;23.164;2023-03-05T09:14:01;92081.13;;;8.07;65.32
10202;BME280;5143;42.584;23.164;2023-03-05T09:16:27;92087.56;;;8.09;68.21
10202;BME280;5143;42.584;23.164;2023-03-05T09:18:54;92086.38;;;8.36;67.96
10202;BME280;5143;42.584;23.164;2023-03-05T09:21:21;92082.97;;;8.41;64.25
10202;BME280;5143;42.584;23.164;2023-03-05T09:23:48;92086.44;;;8.67;60.82
10202;BME280;5143;42.584;23.164;2023-03-05T09:26:15;92079.63;;;9.14;64.01
10202;BME280;5143;42.584;23.164;2023-03-05T09:28:45;92073.63;;;9.47;62.24
10202;BME280;5143;42.584;23.164;2023-03-05T09:31:12;92073.38;;;9.98;60.26
10202;BME280;5143;42.584;23.164;2023-03-05T09:33:39;92067.09;;;9.81;57.74
10202;BME280;5143;42.584;23.164;2023-03-05T09:36:16;92062.41;;;9.28;59.55
10202;BME280;5143;42.584;23.164;2023-03-05T09:38:43;92063.28;;;9.14;60.70
10202;BME280;5143;42.584;23.164;2023-03-05T09:41:15;92070.81;;;8.62;64.92
10202;BME280;5143;42.584;23.164;2023-03-05T09:43:50;92058.59;;;8.52;68.48
10202;BME280;5143;42.584;23.164;2023-03-05T09:46:30;92065.00;;;9.12;65.87
10202;BME280;5143;42.584;23.164;2023-03-05T09:49:09;92066.97;;;9.54;62.28
10202;BME280;5143;42.584;23.164;2023-03-05T09:51:41;92057.41;;;9.69;59.74
10202;BME280;5143;42.584;23.164;2023-03-05T09:54:13;92053.06;;;9.99;58.67
10202;BME280;5143;42.584;23.164;2023-03-05T09:56:45;92056.44;;;9.72;55.38
10202;BME280;5143;42.584;23.164;2023-03-05T09:59:19;92056.44;;;9.72;56.53
10202;BME280;5143;42.584;23.164;2023-03-05T10:01:50;92051.72;;;9.25;57.08
10202;BME280;5143;42.584;23.164;2023-03-05T10:04:20;92048.06;;;9.33;58.43
10202;BME280;5143;42.584;23.164;2023-03-05T10:06:53;92047.75;;;9.26;57.97
10202;BME280;5143;42.584;23.164;2023-03-05T10:09:42;92042.47;;;9.11;57.10
10202;BME280;5143;42.584;23.164;2023-03-05T10:12:18;92048.63;;;9.48;57.21
10202;BME280;5143;42.584;23.164;2023-03-05T10:14:49;92031.88;;;9.19;57.52
10202;BME280;5143;42.584;23.164;2023-03-05T10:17:43;92023.88;;;9.10;56.96
10202;BME280;5143;42.584;23.164;2023-03-05T10:20:34;92039.91;;;9.39;57.39
10202;BME280;5143;42.584;23.164;2023-03-05T10:23:18;92027.47;;;9.80;56.20
10202;BME280;5143;42.584;23.164;2023-03-05T10:25:57;92028.25;;;9.97;56.14
10202;BME280;5143;42.584;23.164;2023-03-05T10:28:33;92019.03;;;9.84;55.69
10202;BME280;5143;42.584;23.164;2023-03-05T10:31:12;92020.69;;;9.59;56.36
10202;BME280;5143;42.584;23.164;2023-03-05T10:33:48;92012.06;;;9.66;57.78
10202;BME280;5143;42.584;23.164;2023-03-05T10:36:27;92013.28;;;9.71;56.85
10202;BME280;5143;42.584;23.164;2023-03-05T10:39:13;92012.50;;;9.59;55.34
10202;BME280;5143;42.584;23.164;2023-03-05T10:41:53;91999.41;;;9.15;56.16
10202;BME280;5143;42.584;23.164;2023-03-05T10:44:32;91999.25;;;9.30;57.94
10202;BME280;5143;42.584;23.164;2023-03-05T10:47:12;91998.69;;;9.20;56.47
10202;BME280;5143;42.584;23.164;2023-03-05T10:49:47;91992.19;;;9.07;57.91
10202;BME280;5143;42.584;23.164;2023-03-05T10:52:17;91996.34;;;8.97;57.68
10202;BME280;5143;42.584;23.164;2023-03-05T10:54:46;91972.91;;;8.68;60.78
10202;BME280;5143;42.584;23.164;2023-03-05T10:57:17;91978.53;;;8.59;65.75
10202;BME280;5143;42.584;23.164;2023-03-05T10:59:47;91977.44;;;8.45;61.25
10202;BME280;5143;42.584;23.164;2023-03-05T11:02:17;91966.16;;;8.58;64.29
10202;BME280;5143;42.584;23.164;2023-03-05T11:04:44;91972.16;;;8.67;61.68
10202;BME280;5143;42.584;23.164;2023-03-05T11:07:31;91970.72;;;8.72;60.21
10202;BME280;5143;42.584;23.164;2023-03-05T11:10:09;91955.50;;;8.54;63.19
10202;BME280;5143;42.584;23.164;2023-03-05T11:12:39;91957.84;;;8.36;64.73
10202;BME280;5143;42.584;23.164;2023-03-05T11:15:27;91948.03;;;8.18;67.22
10202;BME280;5143;42.584;23.164;2023-03-05T11:18:16;91926.09;;;7.96;69.16
10202;BME280;5143;42.584;23.164;2023-03-05T11:20:42;91945.44;;;8.03;64.19
10202;BME280;5143;42.584;23.164;2023-03-05T11:23:11;91947.94;;;8.07;66.70
10202;BME280;5143;42.584;23.164;2023-03-05T11:25:52;91936.63;;;8.14;64.60
10202;BME280;5143;42.584;23.164;2023-03-05T11:28:20;91940.47;;;8.27;68.85
10202;BME280;5143;42.584;23.164;2023-03-05T11:30:55;91932.72;;;8.20;64.95
10202;BME280;5143;42.584;23.164;2023-03-05T11:33:23;91942.56;;;8.44;65.67
10202;BME280;5143;42.584;23.164;2023-03-05T11:35:52;91930.44;;;8.39;68.02
10202;BME280;5143;42.584;23.164;2023-03-05T11:38:43;91926.31;;;8.55;63.29
10202;BME280;5143;42.584;23.164;2023-03-05T11:41:11;91931.66;;;8.38;67.17
10202;BME280;5143;42.584;23.164;2023-03-05T11:43:39;91932.00;;;8.51;64.22
10202;BME280;5143;42.584;23.164;2023-03-05T11:46:09;91921.47;;;8.70;68.67
10202;BME280;5143;42.584;23.164;2023-03-05T11:48:41;91903.41;;;8.67;68.10
10202;BME280;5143;42.584;23.164;2023-03-05T11:51:15;91915.97;;;8.59;63.38
10202;BME280;5143;42.584;23.164;2023-03-05T11:53:46;91904.88;;;8.62;67.40
10202;BME280;5143;42.584;23.164;2023-03-05T11:56:19;91909.56;;;8.62;65.76
10202;BME280;5143;42.584;23.164;2023-03-05T11:58:51;91897.97;;;8.67;68.68
10202;BME280;5143;42.584;23.164;2023-03-05T12:01:21;91897.44;;;9.11;67.70
10202;BME280;5143;42.584;23.164;2023-03-05T12:03:51;91896.09;;;9.54;62.22
10202;BME280;5143;42.584;23.164;2023-03-05T12:06:25;91885.00;;;9.85;60.39
10202;BME280;5143;42.584;23.164;2023-03-05T12:08:55;91900.31;;;9.66;58.93
10202;BME280;5143;42.584;23.164;2023-03-05T12:11:27;91889.94;;;9.92;58.65
10202;BME280;5143;42.584;23.164;2023-03-05T12:13:55;91889.00;;;10.18;57.31
10202;BME280;5143;42.584;23.164;2023-03-05T12:16:27;91897.13;;;9.79;56.15
10202;BME280;5143;42.584;23.164;2023-03-05T12:19:08;91880.75;;;9.73;58.37
10202;BME280;5143;42.584;23.164;2023-03-05T12:21:41;91879.03;;;9.81;57.44
10202;BME280;5143;42.584;23.164;2023-03-05T12:24:34;91882.28;;;9.85;57.56
10202;BME280;5143;42.584;23.164;2023-03-05T12:27:08;91879.78;;;9.93;57.67
10202;BME280;5143;42.584;23.164;2023-03-05T12:29:44;91874.13;;;10.19;54.82
10202;BME280;5143;42.584;23.164;2023-03-05T12:35:38;91875.56;;;10.08;57.09
10202;BME280;5143;42.584;23.164;2023-03-05T12:38:17;91861.22;;;9.91;57.34
10202;BME280;5143;42.584;23.164;2023-03-05T12:40:44;91861.66;;;9.51;55.94
10202;BME280;5143;42.584;23.164;2023-03-05T12:43:28;91859.44;;;9.61;57.70
10202;BME280;5143;42.584;23.164;2023-03-05T12:48:53;91849.56;;;9.74;56.24
10202;BME280;5143;42.584;23.164;2023-03-05T12:51:33;91857.25;;;10.03;58.05
10202;BME280;5143;42.584;23.164;2023-03-05T12:54:23;91851.53;;;9.90;55.78
10202;BME280;5143;42.584;23.164;2023-03-05T12:56:54;91847.59;;;9.97;54.65
10202;BME280;5143;42.584;23.164;2023-03-05T12:59:23;91849.06;;;9.92;55.16
10202;BME280;5143;42.584;23.164;2023-03-05T13:01:53;91836.69;;;10.14;55.08
10202;BME280;5143;42.584;23.164;2023-03-05T13:04:24;91843.59;;;9.92;55.49
10202;BME280;5143;42.584;23.164;2023-03-05T13:07:02;91842.84;;;9.75;55.29
10202;BME280;5143;42.584;23.164;2023-03-05T13:09:31;91838.41;;;9.67;55.11
10202;BME280;5143;42.584;23.164;2023-03-05T13:12:00;91846.28;;;9.54;54.93
10202;BME280;5143;42.584;23.164;2023-03-05T13:14:32;91850.25;;;9.41;55.92
10202;BME280;5143;42.584;23.164;2023-03-05T13:17:00;91842.66;;;8.86;55.23
10202;BME280;5143;42.584;23.164;2023-03-05T13:19:28;91841.09;;;8.74;55.71
10202;BME280;5143;42.584;23.164;2023-03-05T13:22:01;91848.50;;;8.68;56.98